Bradenton Beach, FL

8:47 AM EST on December 09, 2016 (GMT -0500)
San Remo | | Change Station

Elev 16 ft 27.47 °N, 82.66 °W | Updated 14 minutes ago

Overcast
Overcast
56.1 °F
Feels Like 56.1 °F
N
3.0
Wind Variable Wind from NNE
Gusts 13.0 mph

Today
High -- | Low -- °F
--% Chance of Precip.
Yesterday
High -- | Low -- °F
Precip. -- in
Pressure 30.25 in
Visibility 10.0 miles
Clouds Overcast 9500 ft
Dew Point 53 °F
Humidity 90%
Rainfall 0.02 in
Snow Depth Not available.
7:09 AM 5:36 PM
Waxing Gibbous, 74% visible
METAR KSRQ 091253Z 05007KT 10SM -RA OVC095 12/10 A3025 RMK AO2 RAB15 SLP244 P0001 T01170100
Pressure 30.25 in
Visibility 10.0 miles
Clouds Overcast 9500 ft
Dew Point 53 °F
Humidity 90%
Rainfall 0.02 in
Snow Depth Not available.
7:09 AM 5:36 PM
Waxing Gibbous, 74% visible
METAR KSRQ 091253Z 05007KT 10SM -RA OVC095 12/10 A3025 RMK AO2 RAB15 SLP244 P0001 T01170100

10-Day Weather Forecast

Almanac

Astronomy

Dec. 09, 2016 Rise Set
Actual Time
Civil Twilight
Nautical Twilight
Astronomical Twilight
Moon
Length of Visible Light
Length of Day
Tomorrow will be .
, % of the Moon is Illuminated

Today's Extremes

State Highs State Lows

Community

WunderPhotos

Upload Photos

1,956,407 photos uploaded!

WunderBlog® & News

Nearby

Air Quality

  Air Quality AQ Index Pollutant
Not available.

Snow Depth

Station Depth Elevation

Earthquake Activity

City Distance Mag. Time & Date
Minimum magnitude displayed is 2.5.

Coastal Water Temperatures

Place Temperature

Stations

Nearby Weather Stations

Station Location Temp. Windchill Dew Point Humidity Wind Precip. Elev Updated Type
                   

Watches & Warnings

There are currently no watches in effect.